Flugplatz Detmold

Für EDLJ sind keine METAR/TAF Berichte vorhanden.
Es werden die Flugwettermeldungen vom Flugplatz Buckeburg Airport in 39 km Entfernung angezeigt.

Bericht für ETHB

vom 28.02. um 03:20 UTC

Wind 6 kt aus 260°

Sichtweite 10 km oder mehr

gering bewölkt in 1800 ft

aufgebrochene Bewölkung in 4900 ft

Temperatur 2.0°C

Taupunkt 0.0°C

Luftfeuchtigkeit 87%

Luftdruck 1010 hPa

ETHB 280320Z 26006KT 9999 FEW018 BKN049 02/00 Q1010 BLU
Keine Prognose (TAF) verfügbar.
Impressum